createdAt,value
2017-07-25T00:02:19.733Z,5.20
2017-07-25T00:04:46.377Z,4.70
2017-07-25T00:07:12.287Z,4.67
2017-07-25T00:09:38.977Z,4.50
2017-07-25T00:12:04.898Z,4.30
2017-07-25T00:14:30.865Z,4.50
2017-07-25T00:16:56.805Z,5.03
2017-07-25T00:19:22.735Z,4.80
2017-07-25T00:21:48.652Z,5.00
2017-07-25T00:24:14.595Z,4.37
2017-07-25T00:26:41.258Z,4.53
2017-07-25T00:29:07.185Z,4.33
2017-07-25T00:31:33.124Z,5.30
2017-07-25T00:33:59.770Z,4.00
2017-07-25T00:36:25.701Z,5.00
2017-07-25T00:38:51.658Z,5.83
2017-07-25T00:41:17.589Z,4.90
2017-07-25T00:43:43.524Z,4.87
2017-07-25T00:46:09.484Z,5.27
2017-07-25T00:48:37.239Z,5.67
2017-07-25T00:51:03.905Z,5.80
2017-07-25T00:53:29.807Z,7.00
2017-07-25T00:55:56.540Z,7.20
2017-07-25T00:58:22.486Z,7.03
2017-07-25T01:00:48.421Z,6.80
2017-07-25T01:03:15.089Z,8.30
2017-07-25T01:05:41.020Z,8.83
2017-07-25T01:08:06.961Z,8.67
2017-07-25T01:10:32.895Z,8.53
2017-07-25T01:12:58.857Z,9.13
2017-07-25T01:15:24.820Z,8.47
2017-07-25T01:17:50.773Z,7.50
2017-07-25T01:20:16.718Z,8.87
2017-07-25T01:22:42.686Z,7.23
2017-07-25T01:25:08.630Z,7.80
2017-07-25T01:27:34.559Z,7.80
2017-07-25T01:30:00.489Z,8.00
2017-07-25T01:32:26.417Z,7.50
2017-07-25T01:34:52.369Z,8.13
2017-07-25T01:37:18.373Z,9.60
2017-07-25T01:39:44.316Z,8.80
2017-07-25T01:42:10.271Z,7.30
2017-07-25T01:44:36.205Z,8.70
2017-07-25T01:47:02.135Z,8.20
2017-07-25T01:49:28.106Z,8.10
2017-07-25T01:51:54.792Z,8.70
2017-07-25T01:54:20.734Z,8.43
2017-07-25T01:56:46.690Z,8.83
2017-07-25T01:59:13.371Z,8.57
2017-07-25T02:01:39.337Z,9.60
2017-07-25T02:04:05.295Z,9.17
2017-07-25T02:06:31.229Z,9.00
2017-07-25T02:08:57.178Z,9.27
2017-07-25T02:11:23.117Z,8.30
2017-07-25T02:13:49.069Z,8.47
2017-07-25T02:16:15.017Z,9.07
2017-07-25T02:18:41.734Z,10.17
2017-07-25T02:21:07.685Z,9.60
2017-07-25T02:23:33.633Z,10.00
2017-07-25T02:26:00.326Z,11.30
2017-07-25T02:28:26.336Z,10.27
2017-07-25T02:30:52.270Z,9.90
2017-07-25T02:33:18.225Z,11.13
2017-07-25T02:35:44.164Z,9.53
2017-07-25T02:38:10.116Z,9.10
2017-07-25T02:40:36.873Z,8.47
2017-07-25T02:43:02.860Z,9.47
2017-07-25T02:45:28.809Z,8.97
2017-07-25T02:47:54.745Z,9.00
2017-07-25T02:50:21.461Z,8.83
2017-07-25T02:52:47.442Z,7.53
2017-07-25T02:55:13.382Z,8.23
2017-07-25T02:57:39.299Z,8.83
2017-07-25T03:00:05.256Z,9.40
2017-07-25T03:02:31.185Z,9.43
2017-07-25T03:04:57.853Z,9.67
2017-07-25T03:07:23.777Z,8.90
2017-07-25T03:09:49.713Z,9.67
2017-07-25T03:12:15.641Z,9.50
2017-07-25T03:14:42.330Z,10.77
2017-07-25T03:17:08.242Z,9.77
2017-07-25T03:19:34.899Z,10.70
2017-07-25T03:22:00.826Z,9.50
2017-07-25T03:24:42.508Z,10.30
2017-07-25T03:27:08.465Z,10.20
2017-07-25T03:29:34.393Z,12.00
2017-07-25T03:32:00.335Z,11.20
2017-07-25T03:34:26.268Z,11.50
2017-07-25T03:36:52.217Z,9.47
2017-07-25T03:39:18.895Z,9.80
2017-07-25T03:41:44.829Z,10.23
2017-07-25T03:44:10.764Z,12.80
2017-07-25T03:46:36.707Z,13.03
2017-07-25T03:49:02.650Z,12.67
2017-07-25T03:51:28.669Z,13.10
2017-07-25T03:53:54.629Z,12.43
2017-07-25T03:56:20.564Z,11.67
2017-07-25T03:58:47.233Z,12.60
2017-07-25T04:01:13.161Z,12.97
2017-07-25T04:03:39.102Z,11.40
2017-07-25T04:06:05.038Z,13.30
2017-07-25T04:08:30.983Z,12.30
2017-07-25T04:10:56.941Z,12.03
2017-07-25T04:13:22.893Z,11.90
2017-07-25T04:15:48.812Z,12.17
2017-07-25T04:18:14.752Z,12.03
2017-07-25T04:20:40.688Z,11.93
2017-07-25T04:23:06.630Z,12.67
2017-07-25T04:25:32.601Z,11.73
2017-07-25T04:27:58.581Z,11.57
2017-07-25T04:30:24.537Z,11.50
2017-07-25T04:32:50.538Z,12.33
2017-07-25T04:35:16.521Z,13.03
2017-07-25T04:37:43.186Z,13.63
2017-07-25T04:40:09.135Z,13.67
2017-07-25T04:42:35.091Z,12.57
2017-07-25T04:45:01.042Z,15.00
2017-07-25T04:47:27.733Z,14.93
2017-07-25T04:49:53.678Z,14.83
2017-07-25T04:52:19.608Z,13.63
2017-07-25T04:54:45.525Z,15.80
2017-07-25T04:57:11.479Z,14.10
2017-07-25T04:59:37.413Z,15.23
2017-07-25T05:02:04.120Z,13.93
2017-07-25T05:04:30.097Z,15.57
2017-07-25T05:06:57.853Z,14.30
2017-07-25T05:09:24.514Z,14.33
2017-07-25T05:11:50.446Z,13.37
2017-07-25T05:14:17.100Z,12.17
2017-07-25T05:16:43.028Z,14.73
2017-07-25T05:19:08.945Z,14.50
2017-07-25T05:21:34.881Z,15.07
2017-07-25T05:24:00.809Z,15.90
2017-07-25T05:26:26.753Z,15.00
2017-07-25T05:28:52.697Z,14.03
2017-07-25T05:31:18.677Z,15.20
2017-07-25T05:33:45.361Z,14.97
2017-07-25T05:36:11.310Z,15.63
2017-07-25T05:38:37.225Z,15.47
2017-07-25T05:41:03.157Z,13.87
2017-07-25T05:43:29.109Z,15.10
2017-07-25T05:45:55.072Z,14.63
2017-07-25T05:48:20.996Z,15.30
2017-07-25T05:50:46.945Z,14.10
2017-07-25T05:53:12.895Z,16.03
2017-07-25T05:55:38.859Z,14.70
2017-07-25T05:58:04.893Z,12.93
2017-07-25T06:00:30.854Z,13.00
2017-07-25T06:02:56.841Z,12.43
2017-07-25T06:05:23.518Z,12.50
2017-07-25T06:07:49.469Z,12.17
2017-07-25T06:10:15.419Z,11.50
2017-07-25T06:12:41.389Z,12.30
2017-07-25T06:15:07.313Z,12.07
2017-07-25T06:17:33.286Z,11.43
2017-07-25T06:19:59.201Z,11.40
2017-07-25T06:22:25.132Z,10.57
2017-07-25T06:24:51.078Z,10.33
2017-07-25T06:27:17.009Z,9.60
2017-07-25T06:29:44.183Z,10.57
2017-07-25T06:32:10.139Z,9.50
2017-07-25T06:34:36.093Z,9.80
2017-07-25T06:37:02.077Z,9.97
2017-07-25T06:39:28.792Z,9.10
2017-07-25T06:41:54.741Z,8.70
2017-07-25T06:44:21.417Z,9.07
2017-07-25T06:46:47.331Z,9.33
2017-07-25T06:49:14.003Z,9.17
2017-07-25T06:51:39.950Z,9.63
2017-07-25T06:54:05.885Z,10.20
2017-07-25T06:56:31.812Z,10.60
2017-07-25T06:58:57.773Z,11.40
2017-07-25T07:01:23.720Z,10.20
2017-07-25T07:03:49.697Z,9.77
2017-07-25T07:06:15.627Z,9.90
2017-07-25T07:08:41.573Z,9.80
2017-07-25T07:11:07.536Z,10.57
2017-07-25T07:13:33.570Z,10.07
2017-07-25T07:15:59.599Z,9.70
2017-07-25T07:18:25.513Z,9.60
2017-07-25T07:20:51.454Z,9.40
2017-07-25T07:23:17.379Z,8.43
2017-07-25T07:25:43.325Z,9.30
2017-07-25T07:28:09.270Z,9.70
2017-07-25T07:30:36.257Z,11.20
2017-07-25T07:33:05.970Z,9.03
2017-07-25T07:35:31.929Z,9.40
2017-07-25T07:37:57.899Z,8.27
2017-07-25T07:40:23.834Z,9.70
2017-07-25T07:42:49.764Z,8.50
2017-07-25T07:45:15.818Z,8.17
2017-07-25T07:47:46.445Z,9.43
2017-07-25T07:50:12.405Z,7.00
2017-07-25T07:52:39.473Z,7.17
2017-07-25T07:55:05.417Z,7.13
2017-07-25T07:57:31.401Z,6.00
2017-07-25T08:02:55.281Z,5.70
2017-07-25T08:05:21.287Z,6.27
2017-07-25T08:07:47.329Z,5.50
2017-07-25T08:10:13.362Z,5.20
2017-07-25T08:12:40.044Z,5.80
2017-07-25T08:15:10.850Z,5.80
2017-07-25T08:17:36.777Z,7.60
2017-07-25T08:20:02.716Z,6.87
2017-07-25T08:22:45.685Z,6.70
2017-07-25T08:25:11.634Z,6.90
2017-07-25T08:27:38.363Z,7.77
2017-07-25T08:30:04.355Z,8.20
2017-07-25T08:32:30.294Z,7.30
2017-07-25T08:34:56.248Z,8.00
2017-07-25T08:37:22.206Z,7.70
2017-07-25T08:39:48.157Z,8.43
2017-07-25T08:42:32.201Z,8.13
2017-07-25T08:44:58.141Z,9.10
2017-07-25T08:47:24.082Z,8.80
2017-07-25T08:49:55.262Z,13.73
2017-07-25T08:52:21.965Z,10.10
2017-07-25T08:54:48.966Z,10.23
2017-07-25T08:57:16.736Z,13.63
2017-07-25T08:59:43.416Z,11.40
2017-07-25T09:02:12.781Z,12.17
2017-07-25T09:04:38.729Z,12.83
2017-07-25T09:07:04.677Z,13.00
2017-07-25T09:09:30.625Z,13.80
2017-07-25T09:11:56.564Z,14.30
2017-07-25T09:14:22.535Z,14.43
2017-07-25T09:16:48.525Z,13.70
2017-07-25T09:19:14.503Z,16.37
2017-07-25T09:21:40.507Z,15.37
2017-07-25T09:24:06.452Z,16.10
2017-07-25T09:26:32.393Z,17.70
2017-07-25T09:29:12.975Z,16.07
2017-07-25T09:31:38.925Z,15.47
2017-07-25T09:34:04.869Z,14.53
2017-07-25T09:36:36.937Z,12.23
2017-07-25T09:39:03.663Z,12.30
2017-07-25T09:41:29.616Z,13.07
2017-07-25T09:43:56.357Z,14.20
2017-07-25T09:46:22.457Z,13.10
2017-07-25T09:48:48.457Z,11.63
2017-07-25T09:51:14.449Z,10.80
2017-07-25T09:53:41.151Z,10.77
2017-07-25T09:56:07.167Z,10.23
2017-07-25T09:58:33.094Z,8.50
2017-07-25T10:00:59.064Z,8.93
2017-07-25T10:03:25.029Z,8.23
2017-07-25T10:05:50.989Z,8.50
2017-07-25T10:08:16.944Z,8.70
2017-07-25T10:10:43.068Z,8.60
2017-07-25T10:13:09.033Z,7.60
2017-07-25T10:15:34.969Z,8.40
2017-07-25T10:18:00.935Z,7.90
2017-07-25T10:20:26.971Z,8.07
2017-07-25T10:23:00.425Z,8.57
2017-07-25T10:25:33.885Z,9.03
2017-07-25T10:28:03.314Z,9.30
2017-07-25T10:30:29.288Z,9.53
2017-07-25T10:32:57.514Z,10.17
2017-07-25T10:35:39.354Z,8.60
2017-07-25T10:41:09.454Z,8.60
2017-07-25T10:43:38.996Z,8.40
2017-07-25T10:46:11.134Z,8.33
2017-07-25T10:48:40.514Z,6.80
2017-07-25T10:51:07.368Z,7.53
2017-07-25T10:53:38.105Z,6.87
2017-07-25T10:56:04.143Z,6.93
2017-07-25T10:58:30.161Z,6.10
2017-07-25T11:00:57.137Z,7.10
2017-07-25T11:03:27.362Z,6.50
2017-07-25T11:05:53.311Z,5.93
2017-07-25T11:08:20.351Z,5.50
2017-07-25T11:10:46.435Z,6.13
2017-07-25T11:13:13.193Z,5.30
2017-07-25T11:15:39.221Z,4.80
2017-07-25T11:18:10.211Z,4.93
2017-07-25T11:20:43.625Z,4.80
2017-07-25T11:23:15.896Z,5.30
2017-07-25T11:25:43.957Z,4.80
2017-07-25T11:28:10.032Z,5.03
2017-07-25T11:30:36.138Z,5.67
2017-07-25T11:33:02.144Z,5.40
2017-07-25T11:35:28.105Z,5.10
2017-07-25T11:37:55.153Z,4.50
2017-07-25T11:40:21.270Z,4.77
2017-07-25T11:42:48.330Z,4.17
2017-07-25T11:45:14.344Z,4.13
2017-07-25T11:47:44.825Z,4.27
2017-07-25T11:50:10.841Z,4.50
2017-07-25T11:52:42.406Z,4.27
2017-07-25T11:55:09.383Z,8.20
2017-07-25T11:57:40.120Z,6.70
2017-07-25T12:00:08.044Z,4.70
2017-07-25T12:02:37.745Z,4.07
2017-07-25T12:05:03.721Z,3.77
2017-07-25T12:07:31.686Z,4.30
2017-07-25T12:10:01.728Z,4.70
2017-07-25T12:12:27.742Z,5.70
2017-07-25T12:14:53.769Z,4.80
2017-07-25T12:17:24.604Z,4.03
2017-07-25T12:19:55.552Z,4.00
2017-07-25T12:22:22.310Z,4.60
2017-07-25T12:24:50.284Z,5.67
2017-07-25T12:27:17.488Z,4.30
2017-07-25T12:29:44.505Z,4.20
2017-07-25T12:32:10.515Z,5.13
2017-07-25T12:34:36.760Z,5.20
2017-07-25T12:37:02.705Z,5.20
2017-07-25T12:39:32.604Z,6.33
2017-07-25T12:42:00.213Z,7.70
2017-07-25T12:44:27.610Z,8.73
2017-07-25T12:47:04.342Z,8.40
2017-07-25T12:49:32.789Z,8.80
2017-07-25T12:52:00.803Z,7.43
2017-07-25T12:54:26.791Z,8.97
2017-07-25T12:56:52.854Z,8.27
2017-07-25T12:59:18.913Z,9.00
2017-07-25T13:01:57.468Z,8.93
2017-07-25T13:04:23.524Z,9.43
2017-07-25T13:06:57.217Z,8.80
2017-07-25T13:09:23.211Z,9.53
2017-07-25T13:11:56.433Z,9.47
2017-07-25T13:14:22.465Z,8.90
2017-07-25T13:16:48.524Z,10.27
2017-07-25T13:19:17.785Z,7.50
2017-07-25T13:21:44.242Z,8.80
2017-07-25T13:24:16.803Z,8.40
2017-07-25T13:26:48.721Z,7.70
2017-07-25T13:29:14.833Z,9.87
2017-07-25T13:31:40.818Z,7.93
2017-07-25T13:34:06.919Z,9.00
2017-07-25T13:36:32.882Z,7.50
2017-07-25T13:39:05.000Z,7.03
2017-07-25T13:41:32.021Z,9.20
2017-07-25T13:43:58.314Z,8.50
2017-07-25T13:46:24.341Z,9.57
2017-07-25T13:48:55.948Z,9.30
2017-07-25T13:51:29.657Z,10.47
2017-07-25T13:54:05.678Z,9.60
2017-07-25T13:56:33.644Z,7.93
2017-07-25T13:59:02.343Z,8.10
2017-07-25T14:01:28.562Z,8.90
2017-07-25T14:03:59.621Z,8.93
2017-07-25T14:06:25.562Z,10.47
2017-07-25T14:08:52.626Z,9.03
2017-07-25T14:11:19.670Z,10.50
2017-07-25T14:13:47.669Z,9.17
2017-07-25T14:16:13.922Z,9.63
2017-07-25T14:18:40.734Z,8.13
2017-07-25T14:21:10.530Z,8.53
2017-07-25T14:23:44.982Z,8.80
2017-07-25T14:26:12.030Z,9.67
2017-07-25T14:28:41.468Z,9.50
2017-07-25T14:31:08.462Z,10.33
2017-07-25T14:33:35.259Z,10.77
2017-07-25T14:36:01.214Z,9.73
2017-07-25T14:38:28.442Z,11.77
2017-07-25T14:40:58.641Z,10.90
2017-07-25T14:43:24.639Z,12.20
2017-07-25T14:45:52.455Z,13.87
2017-07-25T14:48:18.465Z,14.00
2017-07-25T14:50:45.033Z,13.33
2017-07-25T14:53:12.026Z,14.70
2017-07-25T14:55:41.118Z,15.00
2017-07-25T14:58:07.877Z,22.70
2017-07-25T15:00:34.545Z,17.83
2017-07-25T15:03:00.547Z,15.40
2017-07-25T15:05:30.485Z,14.63
2017-07-25T15:07:56.539Z,16.07
2017-07-25T15:10:22.538Z,12.10
2017-07-25T15:12:48.635Z,11.50
2017-07-25T15:15:15.621Z,10.60
2017-07-25T15:17:46.142Z,9.97
2017-07-25T15:20:20.514Z,10.23
2017-07-25T15:22:46.482Z,9.20
2017-07-25T15:25:18.067Z,10.10
2017-07-25T15:27:47.567Z,9.83
2017-07-25T15:30:17.813Z,10.43
2017-07-25T15:32:45.921Z,9.17
2017-07-25T15:35:15.389Z,9.10
2017-07-25T15:37:41.418Z,9.33
2017-07-25T15:40:07.462Z,10.60
2017-07-25T15:42:33.614Z,8.50
2017-07-25T15:45:01.671Z,8.00
2017-07-25T15:47:30.097Z,7.67
2017-07-25T15:49:57.344Z,7.10
2017-07-25T15:52:27.712Z,6.57
2017-07-25T15:54:55.795Z,8.87
2017-07-25T15:57:21.809Z,8.67
2017-07-25T15:59:47.766Z,8.00
2017-07-25T16:02:17.448Z,7.70
2017-07-25T16:04:51.688Z,7.93
2017-07-25T16:07:17.691Z,8.67
2017-07-25T16:09:44.554Z,8.17
2017-07-25T16:12:16.930Z,8.20
2017-07-25T16:14:47.253Z,7.83
2017-07-25T16:17:13.274Z,8.60
2017-07-25T16:19:40.049Z,8.23
2017-07-25T16:22:07.116Z,8.47
2017-07-25T16:24:35.300Z,10.10
2017-07-25T16:27:04.947Z,10.10
2017-07-25T16:29:31.028Z,8.90
2017-07-25T16:31:59.085Z,7.90
2017-07-25T16:34:30.918Z,9.13
2017-07-25T16:37:19.475Z,8.60
2017-07-25T16:39:51.889Z,6.90
2017-07-25T16:42:17.887Z,7.80
2017-07-25T16:44:43.893Z,6.97
2017-07-25T16:47:10.588Z,7.53
2017-07-25T16:49:44.401Z,7.30
2017-07-25T16:52:11.464Z,6.67
2017-07-25T16:54:39.533Z,7.23
2017-07-25T16:57:07.564Z,6.50
2017-07-25T16:59:37.490Z,7.07
2017-07-25T17:02:16.465Z,7.07
2017-07-25T17:04:45.896Z,7.13
2017-07-25T17:07:16.253Z,7.60
2017-07-25T17:09:56.461Z,6.20
2017-07-25T17:12:26.979Z,6.50
2017-07-25T17:15:03.326Z,6.63
2017-07-25T17:17:35.694Z,6.37
2017-07-25T17:20:09.898Z,5.77
2017-07-25T17:22:35.901Z,5.53
2017-07-25T17:25:20.589Z,5.70
2017-07-25T17:27:54.914Z,5.00
2017-07-25T17:30:25.422Z,4.07
2017-07-25T17:33:01.738Z,4.40
2017-07-25T17:35:39.070Z,4.67
2017-07-25T17:38:09.455Z,4.73
2017-07-25T17:40:35.538Z,5.90
2017-07-25T17:43:16.854Z,5.17
2017-07-25T17:45:53.508Z,5.10
2017-07-25T17:48:23.944Z,4.30
2017-07-25T17:51:03.164Z,5.20
2017-07-25T17:53:35.737Z,4.53
2017-07-25T17:56:09.132Z,4.90
2017-07-25T17:58:45.425Z,4.60
2017-07-25T18:01:12.474Z,4.93
2017-07-25T18:03:53.459Z,4.20
2017-07-25T18:06:22.907Z,3.57
2017-07-25T18:08:50.128Z,4.70
2017-07-25T18:11:23.578Z,4.83
2017-07-25T18:14:09.962Z,5.20
2017-07-25T18:16:38.015Z,5.30
2017-07-25T18:19:04.756Z,5.10
2017-07-25T18:21:30.777Z,5.40
2017-07-25T18:24:04.121Z,7.60
2017-07-25T18:26:32.250Z,7.30
2017-07-25T18:29:00.293Z,7.27
2017-07-25T18:31:30.166Z,9.57
2017-07-25T18:33:56.845Z,7.60
2017-07-25T18:36:22.858Z,7.90
2017-07-25T18:38:49.894Z,8.27
2017-07-25T18:41:18.179Z,7.83
2017-07-25T18:43:48.966Z,7.80
2017-07-25T18:46:14.954Z,7.57
2017-07-25T18:49:05.836Z,7.30
2017-07-25T18:51:45.408Z,6.20
2017-07-25T18:54:12.457Z,6.50
2017-07-25T18:56:49.209Z,6.40
2017-07-25T18:59:26.644Z,5.40
2017-07-25T19:02:04.193Z,5.57
2017-07-25T19:04:48.484Z,6.20
2017-07-25T19:07:14.467Z,4.73
2017-07-25T19:09:44.319Z,6.17
2017-07-25T19:12:10.289Z,6.00
2017-07-25T19:14:38.327Z,4.80
2017-07-25T19:17:10.300Z,5.10
2017-07-25T19:19:37.289Z,5.80
2017-07-25T19:22:04.237Z,4.77
2017-07-25T19:24:30.273Z,4.43
2017-07-25T19:27:00.370Z,5.70
2017-07-25T19:29:32.581Z,4.57
2017-07-25T19:31:58.602Z,5.50
2017-07-25T19:34:26.589Z,5.00
2017-07-25T19:36:52.608Z,4.63
2017-07-25T19:39:20.594Z,4.37
2017-07-25T19:41:50.178Z,5.30
2017-07-25T19:44:24.407Z,5.50
2017-07-25T19:46:56.680Z,5.90
2017-07-25T19:49:29.085Z,6.00
2017-07-25T19:51:55.126Z,6.20
2017-07-25T19:54:21.081Z,9.30
2017-07-25T19:56:59.139Z,7.90
2017-07-25T19:59:26.211Z,6.90
2017-07-25T20:02:10.897Z,8.20
2017-07-25T20:04:38.587Z,7.33
2017-07-25T20:07:12.663Z,7.60
2017-07-25T20:09:49.070Z,7.30
2017-07-25T20:12:17.273Z,5.57
2017-07-25T20:14:46.086Z,6.30
2017-07-25T20:17:12.082Z,6.73
2017-07-25T20:19:51.341Z,6.83
2017-07-25T20:22:17.316Z,7.80
2017-07-25T20:24:44.348Z,8.03
2017-07-25T20:27:10.317Z,8.10
2017-07-25T20:29:42.645Z,7.30
2017-07-25T20:32:08.763Z,8.43
2017-07-25T20:34:41.296Z,7.27
2017-07-25T20:37:14.547Z,7.83
2017-07-25T20:39:48.013Z,7.27
2017-07-25T20:42:13.965Z,6.97
2017-07-25T20:44:40.978Z,5.73
2017-07-25T20:47:07.162Z,6.63
2017-07-25T20:49:34.053Z,7.10
2017-07-25T20:52:00.097Z,6.30
2017-07-25T20:54:29.587Z,5.90
2017-07-25T20:56:55.602Z,5.27
2017-07-25T20:59:26.238Z,4.47
2017-07-25T21:01:52.321Z,5.60
2017-07-25T21:04:18.619Z,4.73
2017-07-25T21:06:45.657Z,3.63
2017-07-25T21:09:20.339Z,4.77
2017-07-25T21:11:58.837Z,4.13
2017-07-25T21:14:35.212Z,3.90
2017-07-25T21:17:03.332Z,3.60
2017-07-25T21:19:30.118Z,3.40
2017-07-25T21:22:01.399Z,3.33
2017-07-25T21:24:29.583Z,5.90
2017-07-25T21:27:02.994Z,3.40
2017-07-25T21:29:29.714Z,4.70
2017-07-25T21:31:55.851Z,4.70
2017-07-25T21:34:28.925Z,4.70
2017-07-25T21:37:03.132Z,2.83
2017-07-25T21:39:29.256Z,3.73
2017-07-25T21:41:55.378Z,2.40
2017-07-25T21:44:30.088Z,2.33
2017-07-25T21:47:02.416Z,2.53
2017-07-25T21:49:31.929Z,2.63
2017-07-25T21:51:58.058Z,2.10
2017-07-25T21:54:29.255Z,2.30
2017-07-25T21:56:58.738Z,1.80
2017-07-25T21:59:24.811Z,2.37
2017-07-25T22:02:03.089Z,1.73
2017-07-25T22:04:53.785Z,3.70
2017-07-25T22:07:19.792Z,2.20
2017-07-25T22:09:46.515Z,2.03
2017-07-25T22:12:12.469Z,1.60
2017-07-25T22:14:39.205Z,3.00
2017-07-25T22:17:05.203Z,2.17
2017-07-25T22:19:31.180Z,1.77
2017-07-25T22:21:57.898Z,2.60
2017-07-25T22:24:23.928Z,2.80
2017-07-25T22:26:49.946Z,2.40
2017-07-25T22:29:15.943Z,2.10
2017-07-25T22:31:41.908Z,2.40
2017-07-25T22:34:07.889Z,2.37
2017-07-25T22:36:33.908Z,2.43
2017-07-25T22:38:59.909Z,2.37
2017-07-25T22:41:25.861Z,2.90
2017-07-25T22:43:52.561Z,3.20
2017-07-25T22:46:18.530Z,2.70
2017-07-25T22:48:44.502Z,2.80
2017-07-25T22:51:10.493Z,2.30
2017-07-25T22:53:37.200Z,2.83
2017-07-25T22:56:03.226Z,2.70
2017-07-25T22:58:29.171Z,2.20
2017-07-25T23:00:55.142Z,2.57
2017-07-25T23:03:21.131Z,2.20
2017-07-25T23:05:47.122Z,1.93
2017-07-25T23:08:13.115Z,2.50
2017-07-25T23:10:39.090Z,2.70
2017-07-25T23:13:05.051Z,2.50
2017-07-25T23:15:31.030Z,2.20
2017-07-25T23:17:56.987Z,2.53
2017-07-25T23:20:22.993Z,2.00
2017-07-25T23:22:48.992Z,2.00
2017-07-25T23:25:14.995Z,1.97
2017-07-25T23:27:40.971Z,2.20
2017-07-25T23:30:07.008Z,2.20
2017-07-25T23:32:33.011Z,2.33
2017-07-25T23:34:59.078Z,2.60
2017-07-25T23:37:25.401Z,2.50
2017-07-25T23:39:51.731Z,3.30
2017-07-25T23:42:17.735Z,2.60
2017-07-25T23:44:43.681Z,2.20
2017-07-25T23:47:09.622Z,2.20
2017-07-25T23:49:35.597Z,2.40
2017-07-25T23:52:01.560Z,3.17
2017-07-25T23:54:27.517Z,2.90
2017-07-25T23:56:53.478Z,2.03
2017-07-25T23:59:20.203Z,3.17
